createdAt,value
2019-05-11T00:03:20.528Z,81.88
2019-05-11T00:08:25.767Z,81.37
2019-05-11T00:13:31.352Z,80.63
2019-05-11T00:18:36.739Z,81.32
2019-05-11T00:23:41.955Z,81.94
2019-05-11T00:28:47.099Z,82.16
2019-05-11T00:33:52.494Z,82.49
2019-05-11T00:38:58.222Z,82.19
2019-05-11T00:44:03.627Z,82.46
2019-05-11T00:49:08.795Z,82.76
2019-05-11T00:54:14.131Z,83.47
2019-05-11T00:59:22.267Z,84.22
2019-05-11T01:04:27.625Z,85.39
2019-05-11T01:09:33.275Z,84.62
2019-05-11T01:14:39.767Z,85.88
2019-05-11T01:19:44.999Z,85.23
2019-05-11T01:24:50.247Z,85.94
2019-05-11T01:29:55.550Z,86.11
2019-05-11T01:35:00.897Z,85.61
2019-05-11T01:40:06.543Z,86.58
2019-05-11T01:45:11.867Z,85.68
2019-05-11T01:50:17.374Z,85.64
2019-05-11T01:55:23.786Z,84.42
2019-05-11T02:00:30.171Z,84.48
2019-05-11T02:05:35.458Z,84.76
2019-05-11T02:10:40.674Z,84.88
2019-05-11T02:15:46.200Z,85.63
2019-05-11T02:20:51.438Z,87.34
2019-05-11T02:25:56.689Z,87.72
2019-05-11T02:31:01.946Z,86.59
2019-05-11T02:36:08.412Z,87.06
2019-05-11T02:41:13.693Z,87.01
2019-05-11T02:46:19.872Z,86.41
2019-05-11T02:51:25.233Z,87.71
2019-05-11T02:56:30.446Z,87.42
2019-05-11T03:01:35.693Z,86.47
2019-05-11T03:06:41.123Z,86.35
2019-05-11T03:11:55.408Z,86.41
2019-05-11T03:17:11.960Z,87.35
2019-05-11T03:22:17.297Z,87.73
2019-05-11T03:27:22.516Z,88.24
2019-05-11T03:32:28.231Z,86.67
2019-05-11T03:37:33.591Z,86.12
2019-05-11T03:42:38.777Z,88.13
2019-05-11T03:47:44.025Z,89.00
2019-05-11T03:52:49.267Z,90.35
2019-05-11T03:57:54.531Z,90.48
2019-05-11T04:03:00.140Z,90.37
2019-05-11T04:08:05.497Z,90.66
2019-05-11T04:13:10.699Z,90.51
2019-05-11T04:18:16.599Z,89.61
2019-05-11T04:23:21.866Z,89.30
2019-05-11T04:28:28.415Z,89.62
2019-05-11T04:33:33.678Z,89.18
2019-05-11T04:38:38.923Z,87.61
2019-05-11T04:43:46.302Z,87.04
2019-05-11T04:48:51.742Z,89.25
2019-05-11T04:53:57.530Z,88.29
2019-05-11T04:59:03.048Z,82.36
2019-05-11T05:04:13.844Z,73.04
2019-05-11T05:09:15.605Z,69.83
2019-05-11T05:14:21.023Z,72.33
2019-05-11T05:19:26.893Z,80.42
2019-05-11T05:24:32.092Z,79.14
2019-05-11T05:29:37.350Z,80.12
2019-05-11T05:34:42.675Z,78.55
2019-05-11T05:39:49.709Z,80.14
2019-05-11T05:44:55.133Z,77.09
2019-05-11T05:50:00.410Z,74.80
2019-05-11T05:55:05.606Z,76.01
2019-05-11T06:00:13.990Z,78.32
2019-05-11T06:05:19.238Z,76.63
2019-05-11T06:10:24.901Z,77.89
2019-05-11T06:15:30.055Z,75.38
2019-05-11T06:20:35.765Z,77.53
2019-05-11T06:25:41.090Z,76.71
2019-05-11T06:30:46.454Z,78.06
2019-05-11T06:35:52.286Z,76.53
2019-05-11T06:40:57.849Z,77.44
2019-05-11T06:46:03.252Z,76.49
2019-05-11T06:51:08.671Z,75.02
2019-05-11T06:56:14.715Z,74.42
2019-05-11T07:01:20.077Z,72.23
2019-05-11T07:06:30.112Z,73.00
2019-05-11T07:11:34.151Z,70.82
2019-05-11T07:16:40.807Z,67.66
2019-05-11T07:21:48.467Z,65.82
2019-05-11T07:26:56.783Z,64.56
2019-05-11T07:32:09.898Z,64.34
2019-05-11T07:37:24.513Z,63.57
2019-05-11T07:42:30.523Z,63.96
2019-05-11T07:47:37.911Z,63.90
2019-05-11T07:52:42.848Z,63.49
2019-05-11T07:57:50.442Z,64.12
2019-05-11T08:02:58.691Z,66.17
2019-05-11T08:08:04.487Z,65.26
2019-05-11T08:13:11.322Z,65.93
2019-05-11T08:18:18.757Z,65.94
2019-05-11T08:23:25.222Z,65.35
2019-05-11T08:28:30.654Z,68.42
2019-05-11T08:33:35.943Z,69.50
2019-05-11T08:38:42.272Z,71.45
2019-05-11T08:43:49.169Z,73.42
2019-05-11T08:48:55.215Z,73.70
2019-05-11T08:54:01.753Z,75.51
2019-05-11T08:59:08.303Z,77.99
2019-05-11T09:04:13.627Z,81.33
2019-05-11T09:09:19.429Z,80.32
2019-05-11T09:14:24.757Z,83.23
2019-05-11T09:19:30.334Z,84.42
2019-05-11T09:24:39.246Z,86.20
2019-05-11T09:29:44.686Z,88.26
2019-05-11T09:34:49.898Z,88.47
2019-05-11T09:39:55.628Z,90.62
2019-05-11T09:45:00.999Z,91.88
2019-05-11T09:50:08.596Z,92.91
2019-05-11T09:55:13.864Z,93.20
2019-05-11T10:00:20.215Z,93.37
2019-05-11T10:05:25.606Z,91.82
2019-05-11T10:10:31.934Z,90.90
2019-05-11T10:15:38.563Z,87.76
2019-05-11T10:20:45.489Z,88.79
2019-05-11T10:25:53.530Z,89.30
2019-05-11T10:30:58.859Z,90.34
2019-05-11T10:36:04.318Z,90.19
2019-05-11T10:41:09.682Z,87.50
2019-05-11T10:46:20.216Z,87.40
2019-05-11T10:51:21.877Z,86.18
2019-05-11T10:56:28.405Z,87.35
2019-05-11T11:01:33.907Z,87.35
2019-05-11T11:06:39.121Z,87.73
2019-05-11T11:11:44.496Z,89.48
2019-05-11T11:16:49.984Z,88.08
2019-05-11T11:21:55.205Z,88.34
2019-05-11T11:27:00.920Z,86.69
2019-05-11T11:32:08.032Z,86.45
2019-05-11T11:37:13.474Z,87.96
2019-05-11T11:42:19.791Z,87.63
2019-05-11T11:47:25.064Z,87.49
2019-05-11T11:52:30.283Z,88.02
2019-05-11T11:57:38.050Z,87.91
2019-05-11T12:02:43.574Z,88.46
2019-05-11T12:07:49.236Z,88.02
2019-05-11T12:12:54.574Z,87.88
2019-05-11T12:18:00.380Z,88.27
2019-05-11T12:23:05.538Z,88.38
2019-05-11T12:28:11.019Z,87.76
2019-05-11T12:33:18.527Z,88.43
2019-05-11T12:38:23.214Z,89.14
2019-05-11T12:43:28.495Z,89.64
2019-05-11T12:48:33.755Z,90.56
2019-05-11T12:53:39.020Z,92.35
2019-05-11T12:58:44.334Z,92.64
2019-05-11T13:03:50.121Z,93.14
2019-05-11T13:08:58.591Z,93.20
2019-05-11T13:14:03.438Z,93.49
2019-05-11T13:19:08.854Z,93.49
2019-05-11T13:24:14.277Z,93.42
2019-05-11T13:29:20.017Z,94.21
2019-05-11T13:34:29.190Z,94.03
2019-05-11T13:39:37.921Z,94.02
2019-05-11T13:44:43.314Z,94.87
2019-05-11T13:49:48.873Z,96.05
2019-05-11T13:54:54.327Z,96.34
2019-05-11T14:00:00.043Z,97.61
2019-05-11T14:05:05.709Z,97.85
2019-05-11T14:10:11.171Z,97.26
2019-05-11T14:15:18.804Z,97.24
2019-05-11T14:20:23.623Z,97.10
2019-05-11T14:25:29.176Z,96.68
2019-05-11T14:30:35.253Z,96.97
2019-05-11T14:35:41.912Z,96.94
2019-05-11T14:40:48.070Z,96.13
2019-05-11T14:45:53.276Z,96.10
2019-05-11T14:50:59.268Z,95.42
2019-05-11T14:56:05.059Z,94.15
2019-05-11T15:01:10.334Z,94.29
2019-05-11T15:06:18.839Z,94.54
2019-05-11T15:11:24.939Z,93.59
2019-05-11T15:16:30.827Z,93.11
2019-05-11T15:21:38.836Z,92.13
2019-05-11T15:26:44.110Z,92.68
2019-05-11T15:31:52.029Z,92.89
2019-05-11T15:36:58.301Z,92.46
2019-05-11T15:42:10.409Z,91.82
2019-05-11T15:47:11.068Z,91.32
2019-05-11T15:52:18.874Z,90.55
2019-05-11T15:57:24.439Z,90.68
2019-05-11T16:02:30.294Z,90.79
2019-05-11T16:07:38.257Z,91.35
2019-05-11T16:12:44.794Z,91.54
2019-05-11T16:17:50.735Z,91.50
2019-05-11T16:22:56.145Z,90.47
2019-05-11T16:28:02.645Z,91.06
2019-05-11T16:33:08.833Z,90.92
2019-05-11T16:38:14.183Z,90.86
2019-05-11T16:43:19.610Z,91.04
2019-05-11T16:48:24.797Z,91.64
2019-05-11T16:53:32.310Z,91.54
2019-05-11T16:58:40.807Z,91.91
2019-05-11T17:03:44.544Z,92.16
2019-05-11T17:08:49.783Z,91.65
2019-05-11T17:13:55.076Z,92.17
2019-05-11T17:19:01.569Z,92.88
2019-05-11T17:24:06.823Z,93.30
2019-05-11T17:29:11.989Z,93.65
2019-05-11T17:34:20.562Z,94.78
2019-05-11T17:39:25.296Z,94.65
2019-05-11T17:44:30.552Z,92.88
2019-05-11T17:49:38.408Z,93.98
2019-05-11T17:54:42.965Z,93.13
2019-05-11T17:59:48.138Z,93.59
2019-05-11T18:04:53.811Z,92.80
2019-05-11T18:09:58.961Z,94.62
2019-05-11T18:15:07.977Z,94.52
2019-05-11T18:20:17.756Z,93.32
2019-05-11T18:25:20.667Z,92.47
2019-05-11T18:30:25.851Z,93.54
2019-05-11T18:35:31.183Z,94.57
2019-05-11T18:40:38.180Z,94.89
2019-05-11T18:45:43.946Z,94.11
2019-05-11T18:50:49.280Z,94.60
2019-05-11T18:55:58.787Z,94.54
2019-05-11T19:01:04.135Z,94.55
2019-05-11T19:06:09.601Z,94.21
2019-05-11T19:11:14.979Z,93.00
2019-05-11T19:16:20.204Z,92.76
2019-05-11T19:21:25.460Z,92.85
2019-05-11T19:26:31.101Z,93.17
2019-05-11T19:31:38.447Z,93.77
2019-05-11T19:36:44.619Z,94.54
2019-05-11T19:41:49.772Z,93.96
2019-05-11T19:46:55.105Z,95.07
2019-05-11T19:52:00.290Z,94.36
2019-05-11T19:57:05.604Z,94.99
2019-05-11T20:02:10.838Z,95.22
2019-05-11T20:07:18.319Z,95.00
2019-05-11T20:12:25.466Z,95.11
2019-05-11T20:17:30.754Z,94.95
2019-05-11T20:22:36.117Z,95.12
2019-05-11T20:27:43.531Z,94.97
2019-05-11T20:32:49.326Z,94.71
2019-05-11T20:37:55.185Z,94.58
2019-05-11T20:43:00.370Z,94.66
2019-05-11T20:48:07.899Z,94.06
2019-05-11T20:53:13.610Z,94.44
2019-05-11T20:58:20.652Z,94.71
2019-05-11T21:03:27.666Z,95.15
2019-05-11T21:08:33.035Z,94.20
2019-05-11T21:13:39.321Z,94.81
2019-05-11T21:18:45.463Z,95.23
2019-05-11T21:23:50.919Z,96.17
2019-05-11T21:28:57.921Z,96.16
2019-05-11T21:34:03.011Z,96.25
2019-05-11T21:39:09.550Z,96.16
2019-05-11T21:44:14.746Z,96.12
2019-05-11T21:49:21.430Z,95.84
2019-05-11T21:54:29.958Z,96.77
2019-05-11T21:59:33.804Z,96.63
2019-05-11T22:04:39.716Z,96.13
2019-05-11T22:09:45.238Z,96.08
2019-05-11T22:14:51.637Z,96.63
2019-05-11T22:19:58.532Z,96.27
2019-05-11T22:25:04.020Z,96.47
2019-05-11T22:30:10.306Z,96.94
2019-05-11T22:35:18.531Z,96.94
2019-05-11T22:40:24.167Z,95.97
2019-05-11T22:45:29.381Z,95.52
2019-05-11T22:50:34.666Z,95.14
2019-05-11T22:55:40.901Z,95.74
2019-05-11T23:00:47.510Z,96.48
2019-05-11T23:05:52.842Z,96.97
2019-05-11T23:10:58.328Z,97.03
2019-05-11T23:16:03.632Z,94.31
2019-05-11T23:21:08.853Z,93.71
2019-05-11T23:26:14.176Z,92.59
2019-05-11T23:31:21.773Z,91.38
2019-05-11T23:36:28.032Z,90.57
2019-05-11T23:41:33.845Z,90.52
2019-05-11T23:46:39.019Z,90.19
2019-05-11T23:51:44.730Z,90.72
2019-05-11T23:56:52.430Z,89.74
